createdAt,value
2022-12-27T00:00:14.228Z,99119.34
2022-12-27T00:02:42.581Z,99103.44
2022-12-27T00:05:11.716Z,99125.47
2022-12-27T00:07:40.365Z,99094.22
2022-12-27T00:10:11.437Z,99110.00
2022-12-27T00:12:40.348Z,99117.81
2022-12-27T00:15:10.267Z,99124.19
2022-12-27T00:17:38.452Z,99118.16
2022-12-27T00:20:11.578Z,99118.25
2022-12-27T00:22:41.789Z,99113.25
2022-12-27T00:25:10.792Z,99131.63
2022-12-27T00:27:39.716Z,99107.47
2022-12-27T00:30:09.082Z,99125.72
2022-12-27T00:32:37.621Z,99092.66
2022-12-27T00:35:07.369Z,99111.47
2022-12-27T00:37:36.603Z,99103.09
2022-12-27T00:40:06.505Z,99105.16
2022-12-27T00:42:38.355Z,99115.59
2022-12-27T00:45:07.768Z,99093.31
2022-12-27T00:47:36.938Z,99112.41
2022-12-27T00:50:06.605Z,99122.97
2022-12-27T00:52:36.315Z,99141.41
2022-12-27T00:55:05.903Z,99087.53
2022-12-27T00:57:34.475Z,99105.19
2022-12-27T01:00:10.134Z,99127.31
2022-12-27T01:02:39.194Z,99124.56
2022-12-27T01:05:10.656Z,99115.72
2022-12-27T01:07:39.099Z,99118.44
2022-12-27T01:10:10.185Z,99116.09
2022-12-27T01:12:39.175Z,99103.31
2022-12-27T01:15:11.045Z,99100.63
2022-12-27T01:17:39.998Z,99100.31
2022-12-27T01:20:09.477Z,99058.47
2022-12-27T01:22:38.205Z,98927.56
2022-12-27T01:25:07.647Z,99103.63
2022-12-27T01:27:36.153Z,99107.50
2022-12-27T01:30:10.435Z,99110.41
2022-12-27T01:32:39.549Z,99111.56
2022-12-27T01:35:09.013Z,99121.28
2022-12-27T01:37:37.724Z,99108.63
2022-12-27T01:40:07.247Z,99111.13
2022-12-27T01:42:54.229Z,99072.28
2022-12-27T01:45:40.889Z,99107.91
2022-12-27T01:48:22.637Z,99065.50
2022-12-27T01:50:56.675Z,99072.31
2022-12-27T01:53:39.913Z,99100.41
2022-12-27T01:56:30.534Z,99099.28
2022-12-27T01:59:06.216Z,99103.34
2022-12-27T02:01:44.924Z,99106.13
2022-12-27T02:04:19.520Z,99067.03
2022-12-27T02:06:48.695Z,99114.22
2022-12-27T02:09:22.838Z,99110.22
2022-12-27T02:11:57.339Z,99107.88
2022-12-27T02:14:34.919Z,99104.81
2022-12-27T02:17:12.707Z,99108.16
2022-12-27T02:19:42.711Z,99115.72
2022-12-27T02:23:11.384Z,99094.94
2022-12-27T02:25:55.625Z,99084.56
2022-12-27T02:28:49.987Z,99104.16
2022-12-27T02:31:59.191Z,99060.53
2022-12-27T02:34:38.556Z,99081.97
2022-12-27T02:37:13.189Z,99089.22
2022-12-27T02:39:48.726Z,99076.00
2022-12-27T02:42:38.477Z,99035.25
2022-12-27T02:45:38.981Z,99082.88
2022-12-27T02:48:31.998Z,99077.31
2022-12-27T02:51:36.788Z,99074.53
2022-12-27T02:54:30.507Z,99091.94
2022-12-27T02:57:33.777Z,99029.34
2022-12-27T03:04:43.278Z,99091.94
2022-12-27T03:07:39.769Z,99083.03
2022-12-27T03:10:54.584Z,99074.25
2022-12-27T03:14:24.608Z,99080.06
2022-12-27T03:17:08.799Z,99076.19
2022-12-27T03:20:06.194Z,99029.38
2022-12-27T03:22:58.239Z,99024.09
2022-12-27T03:25:28.932Z,99031.88
2022-12-27T03:28:34.596Z,99070.94
2022-12-27T03:31:42.580Z,99032.44
2022-12-27T03:34:32.582Z,99051.28
2022-12-27T03:37:26.171Z,99019.75
2022-12-27T03:40:23.087Z,99062.72
2022-12-27T03:43:14.465Z,99026.59
2022-12-27T03:46:34.258Z,99058.81
2022-12-27T03:49:39.608Z,99059.81
2022-12-27T03:52:26.394Z,99058.69
2022-12-27T03:54:56.149Z,99060.38
2022-12-27T03:57:31.833Z,99066.50
2022-12-27T04:00:00.803Z,99034.84
2022-12-27T04:02:30.035Z,99033.44
2022-12-27T04:04:59.336Z,99067.47
2022-12-27T04:07:28.812Z,99041.94
2022-12-27T04:10:16.066Z,99032.72
2022-12-27T04:13:03.667Z,99077.09
2022-12-27T04:15:52.181Z,99074.88
2022-12-27T04:18:39.568Z,99072.50
2022-12-27T04:21:26.857Z,99087.41
2022-12-27T04:24:14.988Z,99036.50
2022-12-27T04:27:02.197Z,99092.41
2022-12-27T04:29:49.161Z,99040.91
2022-12-27T04:32:36.555Z,99087.63
2022-12-27T04:35:06.221Z,99090.97
2022-12-27T04:37:34.565Z,99091.22
2022-12-27T04:40:21.615Z,99086.63
2022-12-27T04:43:10.292Z,99088.16
2022-12-27T04:45:57.089Z,99081.72
2022-12-27T04:48:46.720Z,99064.41
2022-12-27T04:51:34.470Z,99077.50
2022-12-27T04:54:21.753Z,99043.19
2022-12-27T04:56:50.972Z,99099.38
2022-12-27T04:59:38.707Z,99053.47
2022-12-27T05:02:07.908Z,99086.69
2022-12-27T05:04:38.958Z,99085.28
2022-12-27T05:07:49.281Z,99075.63
2022-12-27T05:10:36.591Z,99056.53
2022-12-27T05:13:23.875Z,99091.41
2022-12-27T05:15:52.421Z,99074.81
2022-12-27T05:18:20.745Z,99093.06
2022-12-27T05:20:49.576Z,99097.56
2022-12-27T05:23:37.374Z,99084.13
2022-12-27T05:26:06.418Z,99103.78
2022-12-27T05:28:34.950Z,99034.28
2022-12-27T05:31:03.916Z,99071.41
2022-12-27T05:33:32.870Z,99104.56
2022-12-27T05:36:01.523Z,99125.38
2022-12-27T05:38:30.189Z,99080.69
2022-12-27T05:41:00.841Z,99135.25
2022-12-27T05:43:30.555Z,99145.16
2022-12-27T05:46:13.000Z,99146.25
2022-12-27T05:48:42.363Z,99142.31
2022-12-27T05:51:19.709Z,99150.09
2022-12-27T05:53:50.060Z,99127.75
2022-12-27T05:56:21.256Z,99152.31
2022-12-27T05:58:53.852Z,99146.00
2022-12-27T06:01:23.292Z,99190.78
2022-12-27T06:03:52.180Z,99191.59
2022-12-27T06:06:21.063Z,99170.78
2022-12-27T06:08:49.845Z,99155.06
2022-12-27T06:11:19.739Z,99140.31
2022-12-27T06:13:54.425Z,99196.81
2022-12-27T06:16:23.387Z,99209.53
2022-12-27T06:18:51.568Z,99234.72
2022-12-27T06:21:21.894Z,99249.28
2022-12-27T06:23:50.893Z,99240.31
2022-12-27T06:26:24.820Z,99260.63
2022-12-27T06:28:55.154Z,99218.44
2022-12-27T06:31:24.503Z,99227.50
2022-12-27T06:33:53.376Z,99247.94
2022-12-27T06:36:26.552Z,99281.53
2022-12-27T06:38:55.133Z,99305.31
2022-12-27T06:41:24.348Z,99300.50
2022-12-27T06:43:58.790Z,99341.75
2022-12-27T06:46:27.546Z,99315.53
2022-12-27T06:48:56.020Z,99320.19
2022-12-27T06:51:24.298Z,99338.28
2022-12-27T06:53:52.579Z,99344.88
2022-12-27T06:56:23.843Z,99353.66
2022-12-27T06:58:52.803Z,99369.97
2022-12-27T07:01:28.037Z,99370.53
2022-12-27T07:03:59.907Z,99357.06
2022-12-27T07:06:31.042Z,99357.97
2022-12-27T07:09:01.790Z,99349.03
2022-12-27T07:11:32.705Z,99350.19
2022-12-27T07:14:01.117Z,99397.03
2022-12-27T07:16:31.212Z,99414.91
2022-12-27T07:19:00.461Z,99415.66
2022-12-27T07:21:30.419Z,99393.16
2022-12-27T07:23:59.031Z,99400.50
2022-12-27T07:26:30.387Z,99356.03
2022-12-27T07:29:01.648Z,99404.75
2022-12-27T07:31:32.968Z,99360.06
2022-12-27T07:34:04.379Z,99375.22
2022-12-27T07:36:38.393Z,99403.50
2022-12-27T07:39:08.000Z,99424.44
2022-12-27T07:41:37.952Z,99454.13
2022-12-27T07:44:07.548Z,99385.94
2022-12-27T07:46:37.590Z,99449.72
2022-12-27T07:49:06.118Z,99458.59
2022-12-27T07:51:34.532Z,99437.88
2022-12-27T07:54:05.912Z,99469.13
2022-12-27T07:56:34.647Z,99475.88
2022-12-27T07:59:03.360Z,99469.13
2022-12-27T08:01:55.190Z,99447.22
2022-12-27T08:04:24.325Z,99473.25
2022-12-27T08:06:52.783Z,99424.69
2022-12-27T08:09:30.532Z,99458.59
2022-12-27T08:11:58.751Z,99477.78
2022-12-27T08:14:26.998Z,99422.19
2022-12-27T08:17:02.675Z,99491.91
2022-12-27T08:19:31.033Z,99491.44
2022-12-27T08:21:59.354Z,99517.13
2022-12-27T08:24:28.250Z,99507.25
2022-12-27T08:26:57.164Z,99527.75
2022-12-27T08:29:27.172Z,99522.94
2022-12-27T08:31:55.797Z,99531.16
2022-12-27T08:34:24.269Z,99483.66
2022-12-27T08:36:55.854Z,99529.16
2022-12-27T08:39:24.997Z,99488.28
2022-12-27T08:41:54.416Z,99521.75
2022-12-27T08:44:23.898Z,99537.84
2022-12-27T08:46:52.435Z,99515.34
2022-12-27T08:49:21.023Z,99520.16
2022-12-27T08:51:49.890Z,99530.03
2022-12-27T08:54:18.353Z,99541.66
2022-12-27T08:56:47.042Z,99549.81
2022-12-27T08:59:15.428Z,99551.28
2022-12-27T09:01:45.323Z,99554.47
2022-12-27T09:04:14.291Z,99549.03
2022-12-27T09:06:42.768Z,99558.47
2022-12-27T09:09:11.298Z,99560.19
2022-12-27T09:11:40.526Z,99569.97
2022-12-27T09:14:12.781Z,99565.03
2022-12-27T09:16:41.963Z,99554.16
2022-12-27T09:19:11.427Z,99531.75
2022-12-27T09:21:42.287Z,99562.00
2022-12-27T09:24:15.383Z,99531.53
2022-12-27T09:26:44.442Z,99569.75
2022-12-27T09:29:13.410Z,99579.63
2022-12-27T09:31:41.953Z,99559.94
2022-12-27T09:34:12.061Z,99576.31
2022-12-27T09:36:41.525Z,99599.72
2022-12-27T09:39:13.127Z,99593.88
2022-12-27T09:45:20.718Z,99611.53
2022-12-27T09:48:33.420Z,99610.03
2022-12-27T09:51:21.757Z,99586.56
2022-12-27T09:54:11.617Z,99614.09
2022-12-27T09:57:17.743Z,99623.03
2022-12-27T09:59:44.530Z,99535.75
2022-12-27T10:02:39.531Z,99612.84
2022-12-27T10:05:22.372Z,99568.19
2022-12-27T10:08:10.235Z,99636.16
2022-12-27T10:10:58.202Z,99583.47
2022-12-27T10:13:42.062Z,99618.75
2022-12-27T10:16:34.651Z,99641.56
2022-12-27T10:19:23.019Z,99639.72
2022-12-27T10:22:33.907Z,99596.75
2022-12-27T10:25:12.117Z,99639.84
2022-12-27T10:27:42.047Z,99635.53
2022-12-27T10:30:20.680Z,99610.44
2022-12-27T10:32:50.038Z,99644.72
2022-12-27T10:35:21.632Z,99645.75
2022-12-27T10:37:50.980Z,99644.13
2022-12-27T10:40:29.810Z,99614.03
2022-12-27T10:43:09.032Z,99608.66
2022-12-27T10:45:43.163Z,99644.78
2022-12-27T10:48:28.912Z,99631.13
2022-12-27T10:51:09.762Z,99662.31
2022-12-27T10:54:10.449Z,99619.63
2022-12-27T10:56:42.275Z,99625.44
2022-12-27T10:59:19.088Z,99655.03
2022-12-27T11:02:19.106Z,99642.09
2022-12-27T11:05:01.733Z,99656.53
2022-12-27T11:07:35.612Z,99651.47
2022-12-27T11:10:21.777Z,99653.91
2022-12-27T11:13:02.171Z,99663.72
2022-12-27T11:15:42.484Z,99626.00
2022-12-27T11:18:20.291Z,99648.13
2022-12-27T11:20:58.873Z,99653.91
2022-12-27T11:23:42.743Z,99667.94
2022-12-27T11:26:24.942Z,99678.38
2022-12-27T11:29:03.520Z,99674.13
2022-12-27T11:31:44.875Z,99638.00
2022-12-27T11:34:26.805Z,99639.16
2022-12-27T11:37:03.244Z,99631.97
2022-12-27T11:39:45.804Z,99658.19
2022-12-27T11:42:47.767Z,99677.59
2022-12-27T11:45:26.638Z,99687.50
2022-12-27T11:48:31.689Z,99696.25
2022-12-27T11:51:24.598Z,99665.28
2022-12-27T11:54:30.324Z,99624.38
2022-12-27T11:57:38.742Z,99691.38
2022-12-27T12:00:25.337Z,99651.53
2022-12-27T12:03:54.115Z,99688.44
2022-12-27T12:06:52.481Z,99684.22
2022-12-27T12:09:30.262Z,99613.94
2022-12-27T12:12:46.387Z,99687.00
2022-12-27T12:15:32.133Z,99701.34
2022-12-27T12:18:51.101Z,99698.81
2022-12-27T12:21:37.860Z,99655.06
2022-12-27T12:24:50.962Z,99702.09
2022-12-27T12:27:31.656Z,99709.25
2022-12-27T12:30:37.756Z,99711.69
2022-12-27T12:33:16.160Z,99663.41
2022-12-27T12:36:22.658Z,99680.59
2022-12-27T12:39:39.073Z,99676.03
2022-12-27T12:42:41.458Z,99721.34
2022-12-27T12:45:31.508Z,99682.03
2022-12-27T12:48:51.556Z,99726.31
2022-12-27T12:52:01.052Z,99720.50
2022-12-27T12:54:54.802Z,99730.44
2022-12-27T12:57:35.206Z,99717.13
2022-12-27T13:00:49.116Z,99695.34
2022-12-27T13:03:48.555Z,99673.31
2022-12-27T13:06:56.595Z,99713.88
2022-12-27T13:10:21.769Z,99713.16
2022-12-27T13:13:10.527Z,99718.22
2022-12-27T13:16:05.096Z,99702.72
2022-12-27T13:19:14.699Z,99728.03
2022-12-27T13:22:16.385Z,99713.50
2022-12-27T13:25:07.587Z,99733.50
2022-12-27T13:28:02.194Z,99719.41
2022-12-27T13:30:55.250Z,99706.84
2022-12-27T13:34:12.377Z,99722.53
2022-12-27T13:37:14.597Z,99727.31
2022-12-27T13:40:26.128Z,99654.66
2022-12-27T13:43:43.534Z,99719.91
2022-12-27T13:46:47.191Z,99722.03
2022-12-27T13:49:34.537Z,99730.34
2022-12-27T13:52:57.581Z,99744.34
2022-12-27T13:55:52.719Z,99748.53
2022-12-27T13:59:27.810Z,99763.44
2022-12-27T14:02:19.684Z,99770.38
2022-12-27T14:05:06.966Z,99668.69
2022-12-27T14:07:56.554Z,99769.94
2022-12-27T14:10:50.152Z,99772.75
2022-12-27T14:13:43.928Z,99756.44
2022-12-27T14:16:57.549Z,99768.16
2022-12-27T14:20:24.312Z,99775.44
2022-12-27T14:22:58.425Z,99776.28
2022-12-27T14:26:03.814Z,99792.94
2022-12-27T14:29:12.387Z,99798.59
2022-12-27T14:32:00.423Z,99806.78
2022-12-27T14:35:27.142Z,99807.72
2022-12-27T14:38:45.358Z,99771.69
2022-12-27T14:41:59.907Z,99768.97
2022-12-27T14:44:55.695Z,99819.66
2022-12-27T14:48:25.621Z,99815.78
2022-12-27T14:51:50.455Z,99820.09
2022-12-27T14:54:19.184Z,99834.88
2022-12-27T15:45:50.998Z,99844.00
2022-12-27T15:48:58.794Z,99818.75
2022-12-27T15:51:52.773Z,99822.59
2022-12-27T15:54:50.382Z,99844.75
2022-12-27T15:57:37.492Z,99813.69
2022-12-27T16:00:18.393Z,99855.50
2022-12-27T16:02:51.916Z,99825.22
2022-12-27T16:05:22.923Z,99845.59
2022-12-27T16:07:59.969Z,99851.53
2022-12-27T16:10:34.499Z,99853.59
2022-12-27T16:13:11.215Z,99848.34
2022-12-27T16:15:50.368Z,99843.06
2022-12-27T16:18:24.730Z,99851.16
2022-12-27T16:21:18.637Z,99853.97
2022-12-27T16:23:46.844Z,99818.03
2022-12-27T16:26:27.516Z,99868.22
2022-12-27T16:29:17.515Z,99870.19
2022-12-27T16:31:50.623Z,99861.09
2022-12-27T16:34:31.985Z,99874.50
2022-12-27T16:37:01.297Z,99837.13
2022-12-27T16:40:01.754Z,99883.47
2022-12-27T16:43:11.144Z,99884.41
2022-12-27T16:45:59.514Z,99879.03
2022-12-27T16:48:49.153Z,99898.66
2022-12-27T16:51:51.751Z,99886.72
2022-12-27T16:54:57.419Z,99891.06
2022-12-27T16:57:25.595Z,99902.34
2022-12-27T17:00:13.724Z,99893.97
2022-12-27T17:02:46.667Z,99840.50
2022-12-27T17:05:41.910Z,99853.59
2022-12-27T17:08:24.742Z,99889.94
2022-12-27T17:10:52.725Z,99888.81
2022-12-27T17:13:55.410Z,99887.22
2022-12-27T17:16:29.738Z,99879.50
2022-12-27T17:19:04.735Z,99883.19
2022-12-27T17:21:41.337Z,99884.00
2022-12-27T17:24:21.280Z,99892.56
2022-12-27T17:27:30.137Z,99888.34
2022-12-27T17:30:05.622Z,99899.34
2022-12-27T17:33:04.317Z,99842.38
2022-12-27T17:36:22.091Z,99857.03
2022-12-27T17:38:55.447Z,99906.22
2022-12-27T17:41:57.759Z,99872.97
2022-12-27T17:44:47.485Z,99916.47
2022-12-27T17:47:37.423Z,99872.34
2022-12-27T17:50:14.081Z,99922.06
2022-12-27T17:53:01.118Z,99879.09
2022-12-27T17:56:07.656Z,99902.03
2022-12-27T17:58:36.299Z,99926.47
2022-12-27T18:01:04.808Z,99919.06
2022-12-27T18:03:45.108Z,99913.13
2022-12-27T18:06:22.571Z,99921.69
2022-12-27T18:08:57.711Z,99765.53
2022-12-27T18:11:29.292Z,99931.47
2022-12-27T18:14:00.878Z,99933.25
2022-12-27T18:16:39.335Z,99926.13
2022-12-27T18:19:07.955Z,99943.41
2022-12-27T18:21:39.100Z,99816.81
2022-12-27T18:24:40.116Z,99906.00
2022-12-27T18:27:20.375Z,99945.81
2022-12-27T18:29:49.989Z,99942.53
2022-12-27T18:32:19.820Z,99882.06
2022-12-27T18:35:00.841Z,99919.75
2022-12-27T18:37:31.261Z,99940.31
2022-12-27T18:40:05.004Z,99958.53
2022-12-27T18:42:40.139Z,99959.06
2022-12-27T18:45:34.927Z,99936.38
2022-12-27T18:48:12.192Z,99927.59
2022-12-27T18:50:53.340Z,99912.06
2022-12-27T18:53:32.550Z,99917.16
2022-12-27T18:56:06.131Z,99917.84
2022-12-27T18:58:35.847Z,99917.00
2022-12-27T19:01:20.261Z,99909.69
2022-12-27T19:04:20.326Z,99962.28
2022-12-27T19:07:15.054Z,99966.59
2022-12-27T19:09:53.634Z,99964.81
2022-12-27T19:12:25.489Z,99974.56
2022-12-27T19:14:55.186Z,99967.97
2022-12-27T19:17:32.502Z,99937.50
2022-12-27T19:20:04.792Z,99984.91
2022-12-27T19:22:47.887Z,99950.84
2022-12-27T19:25:24.483Z,99988.13
2022-12-27T19:28:11.180Z,99996.00
2022-12-27T19:30:51.563Z,99983.91
2022-12-27T19:33:32.916Z,99958.41
2022-12-27T19:36:07.490Z,99984.56
2022-12-27T19:38:36.722Z,100002.47
2022-12-27T19:41:06.597Z,99988.84
2022-12-27T19:43:46.929Z,99996.41
2022-12-27T19:46:16.178Z,100004.38
2022-12-27T19:49:01.066Z,99997.50
2022-12-27T19:51:37.815Z,99953.94
2022-12-27T19:54:20.937Z,100007.59
2022-12-27T19:56:50.543Z,99991.16
2022-12-27T19:59:25.256Z,99945.25
2022-12-27T20:01:54.649Z,99997.06
2022-12-27T20:04:24.133Z,99992.91
2022-12-27T20:06:54.772Z,99991.16
2022-12-27T20:09:23.626Z,99991.31
2022-12-27T20:11:52.410Z,100006.16
2022-12-27T20:14:20.984Z,99966.09
2022-12-27T20:16:49.564Z,99967.94
2022-12-27T20:19:18.432Z,99996.06
2022-12-27T20:21:47.467Z,99974.91
2022-12-27T20:24:16.155Z,100024.75
2022-12-27T20:26:44.959Z,99958.91
2022-12-27T20:29:15.764Z,100019.22
2022-12-27T20:31:48.966Z,100023.63
2022-12-27T20:34:21.042Z,100008.59
2022-12-27T20:36:49.992Z,100024.75
2022-12-27T20:39:18.625Z,100020.16
2022-12-27T20:41:47.445Z,100027.00
2022-12-27T20:44:19.222Z,100005.91
2022-12-27T20:46:48.248Z,100016.91
2022-12-27T20:49:18.257Z,100043.56
2022-12-27T20:51:46.743Z,100042.50
2022-12-27T20:54:17.161Z,100021.88
2022-12-27T20:56:45.552Z,100016.13
2022-12-27T20:59:17.393Z,100009.16
2022-12-27T21:01:49.287Z,100064.50
2022-12-27T21:04:21.298Z,100059.34
2022-12-27T21:06:51.232Z,100045.25
2022-12-27T21:09:20.136Z,100047.97
2022-12-27T21:11:55.434Z,100020.13
2022-12-27T21:14:24.960Z,100073.66
2022-12-27T21:16:54.850Z,100034.94
2022-12-27T21:19:23.696Z,100072.81
2022-12-27T21:21:53.192Z,100053.09
2022-12-27T21:24:22.709Z,100034.25
2022-12-27T21:26:56.229Z,100078.53
2022-12-27T21:29:26.259Z,100027.56
2022-12-27T21:31:54.701Z,100082.06
2022-12-27T21:34:23.348Z,99970.28
2022-12-27T21:36:55.154Z,100099.03
2022-12-27T21:39:23.571Z,100104.22
2022-12-27T21:41:51.832Z,100097.34
2022-12-27T21:44:25.456Z,100096.16
2022-12-27T21:46:53.806Z,100089.53
2022-12-27T21:49:23.151Z,100096.41
2022-12-27T21:51:52.148Z,100043.59
2022-12-27T21:54:22.596Z,100092.84
2022-12-27T21:56:51.069Z,100084.09
2022-12-27T21:59:19.605Z,100044.25
2022-12-27T22:01:50.818Z,100038.31
2022-12-27T22:04:22.271Z,100093.78
2022-12-27T22:06:51.049Z,100099.69
2022-12-27T22:09:20.097Z,100092.06
2022-12-27T22:11:49.104Z,100046.56
2022-12-27T22:14:21.838Z,100074.94
2022-12-27T22:16:53.595Z,100078.69
2022-12-27T22:19:26.323Z,100088.69
2022-12-27T22:21:58.282Z,100093.78
2022-12-27T22:24:26.861Z,100095.56
2022-12-27T22:26:55.325Z,100074.63
2022-12-27T22:29:25.078Z,100096.31
2022-12-27T22:31:53.428Z,100089.88
2022-12-27T22:34:22.304Z,100110.47
2022-12-27T22:36:52.359Z,100116.69
2022-12-27T22:39:20.871Z,100086.63
2022-12-27T22:41:49.121Z,100103.78
2022-12-27T22:44:17.459Z,100081.56
2022-12-27T22:47:15.652Z,100094.47
2022-12-27T22:49:35.179Z,100084.78
2022-12-27T22:52:03.759Z,100104.03
2022-12-27T22:55:05.032Z,100105.13
2022-12-27T22:57:20.122Z,100106.16
2022-12-27T22:59:48.251Z,100109.88
2022-12-27T23:02:16.745Z,100114.28
2022-12-27T23:04:47.423Z,100119.72
2022-12-27T23:07:20.197Z,100106.16
2022-12-27T23:09:48.951Z,100110.81
2022-12-27T23:12:17.017Z,100101.75
2022-12-27T23:14:45.116Z,100066.44
2022-12-27T23:17:13.989Z,100110.78
2022-12-27T23:19:42.986Z,100112.91
2022-12-27T23:22:11.032Z,100092.69
2022-12-27T23:24:39.196Z,100061.47
2022-12-27T23:27:07.182Z,100103.44
2022-12-27T23:29:35.298Z,100112.28
2022-12-27T23:32:03.559Z,100058.88
2022-12-27T23:34:31.948Z,100068.38
2022-12-27T23:37:01.471Z,100060.56
2022-12-27T23:39:30.056Z,100113.66
2022-12-27T23:41:58.141Z,100107.50
2022-12-27T23:44:33.320Z,100118.91
2022-12-27T23:47:07.616Z,100111.97
2022-12-27T23:49:35.818Z,100121.47
2022-12-27T23:52:04.577Z,100109.34
2022-12-27T23:54:32.662Z,100105.94
2022-12-27T23:57:20.363Z,100108.66
2022-12-27T23:59:49.636Z,100088.66
